Latest Weather Observations for Ouse

IDT60801

Issued at 1:01 pm EDT Monday 22 December 2014 (issued every 30 minutes, with the page automatically refreshed every 10 minutes)

About weather observations | Map of weather stations | Latest weather observations for TAS | Other Formats
Station Details ID: 095048 Name: OUSE FIRE STATION Lat: -42.48 Lon: 146.71 Height: 90.0 m
Data from the previous 72 hours. | See also: Recent months at Ouse
Date/Time
EDT
Temp
°C
App
Temp
°C
Dew
Point
Rel
Hum
%
Delta-T
°C
Wind Press
QNH
hPa
Press
MSL
hPa
Rain
since 9 am
mm
Dir
 
Spd
km/h
Gust
km/h
Spd
kts
Gust
kts
22/01:00pm 25.0 24.1 11.2 42 7.8 ESE 7 13 4 7 1012.9 1012.8 0.0
22/12:30pm 23.8 22.2 8.6 38 8.2 ESE 7 13 4 7 1013.5 1013.4 0.0
22/12:00pm 21.9 20.7 8.1 41 7.3 N 4 7 2 4 1013.8 1013.7 0.0
22/11:30am 21.1 19.4 9.7 48 6.1 ESE 9 15 5 8 1013.8 1013.7 0.0
22/11:00am 21.1 19.4 10.0 49 6.0 SSE 9 15 5 8 1014.2 1014.1 0.0
22/10:30am 18.9 16.8 9.9 56 4.8 E 11 17 6 9 1014.5 1014.4 0.0
22/10:00am 18.5 17.4 10.6 60 4.3 ESE 7 13 4 7 1014.8 1014.7 0.0
22/09:30am 17.3 15.8 10.7 65 3.5 ESE 9 11 5 6 1015.2 1015.1 0.0
22/09:00am 16.1 14.9 10.4 69 3.0 SE 7 13 4 7 1015.5 1015.4 0.0
22/08:30am 15.1 14.0 10.1 72 2.6 SE 6 9 3 5 1015.6 1015.5 0.0
22/08:00am 13.7 12.6 9.9 78 2.0 ENE 6 9 3 5 1015.5 1015.4 0.0
22/07:30am 11.8 10.3 8.6 81 1.6 NNE 6 9 3 5 1015.3 1015.2 0.0
22/07:00am 9.7 8.2 8.6 93 0.5 N 6 7 3 4 1015.2 1015.1 0.0
22/06:30am 7.4 5.5 6.8 96 0.3 N 6 7 3 4 1015.1 1015.0 0.0
22/06:00am 6.8 4.8 6.4 97 0.2 NNE 6 9 3 5 1014.9 1014.8 0.0
22/05:30am 7.8 5.9 7.5 98 0.1 NNE 7 9 4 5 1014.6 1014.5 0.0
22/05:00am 7.8 6.1 7.5 98 0.1 N 6 7 3 4 1014.2 1014.1 0.0
22/04:30am 7.8 5.5 7.4 97 0.2 N 9 9 5 5 1014.1 1014.0 0.0
22/04:00am 8.8 6.6 7.9 94 0.4 N 9 11 5 6 1013.9 1013.8 0.0
22/03:30am 9.5 7.4 8.3 92 0.6 N 9 15 5 8 1013.9 1013.8 0.0
22/03:00am 9.8 7.8 8.7 93 0.5 N 9 13 5 7 1014.2 1014.1 0.0
22/02:30am 11.2 9.5 9.9 92 0.7 N 9 15 5 8 1014.1 1014.0 0.0
22/02:00am 12.4 11.5 10.5 88 1.0 NNE 6 7 3 4 1014.1 1014.0 0.0
22/01:30am 13.4 13.1 11.5 88 1.0 NNE 4 9 2 5 1014.4 1014.3 0.0
22/01:00am 14.1 12.9 11.6 85 1.3 NNW 9 11 5 6 1014.4 1014.3 0.0
22/12:30am 13.7 12.9 10.9 83 1.5 WNW 6 9 3 5 1014.4 1014.3 0.0
22/12:00am 14.4 13.0 10.8 79 1.9 W 9 15 5 8 1014.3 1014.2 0.0
 
Date/Time
EDT
Temp
°C
App
Temp
°C
Dew
Point
Rel
Hum
%
Delta-T
°C
Wind Press
QNH
hPa
Press
MSL
hPa
Rain
since 9 am
mm
Dir
 
Spd
km/h
Gust
km/h
Spd
kts
Gust
kts
21/11:30pm 15.2 13.3 10.4 73 2.5 W 11 13 6 7 1014.0 1013.9 0.0
21/11:00pm 14.9 13.3 10.3 74 2.4 NW 9 11 5 6 1013.7 1013.6 0.0
21/10:30pm 14.3 12.9 9.5 73 2.5 N 7 11 4 6 1013.7 1013.6 0.0
21/10:00pm 16.0 13.6 10.1 68 3.1 NW 13 19 7 10 1013.6 1013.5 0.0
21/09:30pm 16.4 13.5 9.8 65 3.5 NW 15 20 8 11 1013.1 1013.0 0.0
21/09:00pm 16.9 14.0 9.8 63 3.7 NW 15 24 8 13 1012.6 1012.5 0.0
21/08:30pm 17.6 14.4 10.0 61 4.0 NW 17 24 9 13 1012.3 1012.2 0.0
21/08:00pm 18.7 14.5 9.8 56 4.7 WNW 22 32 12 17 1012.0 1011.9 0.0
21/07:30pm 19.9 16.0 9.5 51 5.6 W 20 30 11 16 1011.7 1011.6 0.0
21/07:00pm 20.9 17.3 9.8 49 6.0 WNW 19 35 10 19 1010.9 1010.8 0.0
21/06:30pm 22.2 19.2 10.7 48 6.4 W 17 30 9 16 1010.6 1010.5 0.0
21/06:00pm 21.8 18.2 9.7 46 6.6 W 19 32 10 17 1010.8 1010.7 0.0
21/05:30pm 22.5 18.9 10.6 47 6.6 WSW 20 33 11 18 1010.9 1010.8 0.0
21/05:07pm 22.6 17.9 12.0 51 6.0 WSW 28 46 15 25 1010.6 1010.5 0.0
21/05:00pm 23.1 18.4 12.1 50 6.3 WSW 28 39 15 21 1010.5 1010.4 0.0
21/04:52pm 23.6 19.3 13.2 52 6.0 WSW 28 46 15 25 1010.3 1010.2 0.0
21/04:30pm 24.3 20.1 13.5 51 6.3 WSW 28 43 15 23 1010.1 1010.0 0.0
21/04:02pm 25.0 20.0 12.2 44 7.4 WSW 30 48 16 26 1009.5 1009.4 0.0
21/04:00pm 24.7 19.7 12.3 46 7.1 WSW 30 46 16 25 1009.4 1009.3 0.0
21/03:54pm 25.0 20.4 12.2 44 7.4 WSW 28 46 15 25 1009.2 1009.1 0.0
21/03:30pm 26.2 22.4 12.3 42 8.0 WSW 24 35 13 19 1008.6 1008.5 0.0
21/03:00pm 27.5 23.8 12.7 40 8.7 WSW 24 35 13 19 1008.5 1008.4 0.0
21/02:30pm 26.9 23.7 11.8 39 8.7 W 20 32 11 17 1008.5 1008.4 0.0
21/02:00pm 26.6 24.9 12.3 41 8.3 WNW 13 20 7 11 1008.7 1008.6 0.0
21/01:30pm 26.6 24.2 12.6 42 8.2 W 17 24 9 13 1009.4 1009.3 0.0
21/01:00pm 24.4 22.8 11.4 44 7.4 ESE 11 15 6 8 1009.9 1009.8 0.0
21/12:30pm 22.9 22.0 11.3 48 6.5 ESE 7 11 4 6 1010.5 1010.4 0.0
21/12:00pm 21.5 20.4 10.6 50 6.0 E 7 11 4 6 1010.8 1010.7 0.0
21/11:30am 20.7 19.9 11.1 54 5.3 E 6 9 3 5 1011.7 1011.6 0.0
21/11:00am 19.7 18.4 9.9 53 5.3 N 7 13 4 7 1012.1 1012.0 0.0
21/10:30am 18.1 16.7 9.5 57 4.5 ENE 7 9 4 5 1012.9 1012.8 0.0
21/10:00am 17.0 16.4 8.9 59 4.2 ENE 2 7 1 4 1013.7 1013.6 0.0
21/09:30am 15.2 13.8 8.9 66 3.2 ESE 6 9 3 5 1014.2 1014.1 0.0
21/09:00am 14.0 13.4 9.0 72 2.5 E 2 9 1 5 1014.4 1014.3 0.0
21/08:30am 12.5 11.2 9.3 81 1.6 SSE 6 9 3 5 1014.7 1014.6 0.0
21/08:00am 10.8 9.5 9.2 90 0.8 SE 6 9 3 5 1014.8 1014.7 0.0
21/07:30am 8.2 7.4 8.2 100 0.0 E 2 6 1 3 1014.9 1014.8 0.0
21/07:00am 6.1 5.2 6.1 100 0.0 CALM 0 0 0 0 1015.1 1015.0 0.0
21/06:30am 5.9 - - - - NW 4 9 2 5 1015.3 1015.2 0.0
21/06:00am 3.0 -0.2 3.0 100 0.0 N 9 11 5 6 1015.5 1015.4 0.0
21/05:30am 3.0 0.2 3.0 100 0.0 N 7 9 4 5 1015.7 1015.6 0.0
21/05:00am 3.4 0.6 3.4 100 0.0 NNW 7 7 4 4 1015.0 1014.9 0.0
21/04:30am 3.5 0.8 3.5 100 0.0 N 7 9 4 5 1014.7 1014.6 0.0
21/04:00am 3.7 1.0 3.7 100 0.0 NNW 7 9 4 5 1014.5 1014.4 0.0
21/03:30am 4.0 1.4 4.0 100 0.0 N 7 9 4 5 1014.5 1014.4 0.0
21/03:00am 4.5 2.1 4.5 100 0.0 NNW 6 7 3 4 1014.5 1014.4 0.0
21/02:30am 4.6 3.4 4.6 100 0.0 CALM 0 0 0 0 1014.8 1014.7 0.0
21/02:00am 5.1 2.7 4.4 95 0.3 NNW 6 7 3 4 1014.9 1014.8 0.0
21/01:30am 6.0 4.1 5.1 94 0.4 N 4 9 2 5 1015.5 1015.4 0.0
21/01:00am 6.3 3.5 5.1 92 0.5 NE 9 9 5 5 1015.6 1015.5 0.0
21/12:30am 7.5 6.3 6.6 94 0.4 SE 2 7 1 4 1015.5 1015.4 0.0
21/12:00am 7.9 6.1 7.0 94 0.4 ESE 6 9 3 5 1015.7 1015.6 0.0
 
Date/Time
EDT
Temp
°C
App
Temp
°C
Dew
Point
Rel
Hum
%
Delta-T
°C
Wind Press
QNH
hPa
Press
MSL
hPa
Rain
since 9 am
mm
Dir
 
Spd
km/h
Gust
km/h
Spd
kts
Gust
kts
20/11:30pm 8.6 6.7 6.9 89 0.8 NW 6 7 3 4 1015.4 1015.3 0.0
20/11:00pm 9.2 7.2 7.3 88 0.9 N 7 9 4 5 1015.5 1015.4 0.0
20/10:30pm 10.2 8.2 7.3 82 1.4 NNE 7 9 4 5 1015.3 1015.2 0.0
20/10:00pm 11.5 10.5 7.2 75 2.1 NNW 2 9 1 5 1015.4 1015.3 0.0
20/09:30pm 13.0 11.2 8.1 72 2.4 WNW 7 11 4 6 1015.1 1015.0 0.0
20/09:00pm 14.9 12.7 7.7 62 3.6 WNW 9 15 5 8 1014.9 1014.8 0.0
20/08:30pm 16.4 13.4 7.6 56 4.4 WSW 13 19 7 10 1014.8 1014.7 0.0
20/08:00pm 17.5 14.5 7.8 53 4.9 WSW 13 20 7 11 1014.5 1014.4 0.0
20/07:30pm 18.3 14.2 7.7 50 5.4 WSW 19 30 10 16 1014.2 1014.1 0.0
20/07:00pm 19.7 16.4 8.1 47 6.0 SW 15 20 8 11 1013.9 1013.8 0.0
20/06:30pm 19.8 16.9 8.2 47 6.0 W 13 22 7 12 1013.6 1013.5 0.0
20/06:00pm 19.3 15.2 7.7 47 6.0 WSW 19 32 10 17 1013.5 1013.4 0.0
20/05:30pm 19.8 15.4 8.8 49 5.8 WSW 22 35 12 19 1013.2 1013.1 0.0
20/05:00pm 21.9 17.7 9.8 46 6.6 WSW 22 41 12 22 1013.3 1013.2 0.0
20/04:30pm 20.7 15.7 8.0 44 6.6 W 24 41 13 22 1013.2 1013.1 0.0
20/04:00pm 21.2 16.9 9.4 47 6.3 WSW 22 35 12 19 1013.1 1013.0 0.0
20/03:30pm 21.9 18.0 9.4 45 6.7 WSW 20 35 11 19 1012.9 1012.8 0.0
20/03:00pm 21.9 17.1 10.4 48 6.3 W 26 39 14 21 1012.9 1012.8 0.0
20/02:30pm 22.0 18.1 10.8 49 6.2 W 22 35 12 19 1012.9 1012.8 0.0
20/02:00pm 22.4 19.4 12.1 52 5.8 WSW 19 32 10 17 1012.7 1012.6 0.0
20/01:30pm 21.4 18.0 11.1 52 5.7 W 20 33 11 18 1012.9 1012.8 0.0
20/01:00pm 21.5 18.6 12.9 58 4.9 W 20 30 11 16 1012.7 1012.6 0.0
20/12:30pm 20.3 16.0 10.7 54 5.2 SW 24 33 13 18 1012.9 1012.8 0.0
20/12:00pm 21.0 16.8 11.1 53 5.5 WSW 24 33 13 18 1012.9 1012.8 0.0
20/11:30am 20.5 16.6 10.9 54 5.3 WSW 22 33 12 18 1012.8 1012.7 0.0
20/11:00am 20.3 17.3 12.5 61 4.4 SW 20 30 11 16 1012.8 1012.7 0.0
20/10:30am 15.4 13.9 13.1 86 1.3 WNW 13 20 7 11 1013.0 1012.9 0.0
20/10:00am 16.4 12.7 11.6 73 2.6 SW 22 35 12 19 1012.5 1012.4 0.0
20/09:30am 17.6 15.6 11.4 67 3.4 WNW 13 24 7 13 1011.8 1011.7 0.0
20/09:00am 16.4 15.1 12.4 77 2.2 NW 11 20 6 11 1011.8 1011.7 0.0
20/08:30am 16.0 14.0 11.6 75 2.4 N 13 20 7 11 1011.5 1011.4 0.0
20/08:00am 16.8 14.4 11.5 71 2.9 N 15 20 8 11 1011.0 1010.9 0.0
20/07:30am 14.9 13.1 10.9 77 2.1 N 11 17 6 9 1010.9 1010.8 0.0
20/07:00am 14.4 12.5 10.6 78 2.0 NNW 11 17 6 9 1010.7 1010.6 0.0
20/06:30am 13.8 11.7 9.8 77 2.1 NNW 11 17 6 9 1010.4 1010.3 0.0
20/06:00am 13.3 11.1 9.4 77 2.0 NNW 11 17 6 9 1010.3 1010.2 0.0
20/05:30am 12.9 10.5 8.8 76 2.1 N 11 15 6 8 1010.3 1010.2 0.0
20/05:00am 13.1 10.4 8.8 75 2.2 NNW 13 17 7 9 1010.3 1010.2 0.0
20/04:30am 12.9 10.5 8.6 75 2.2 NNW 11 17 6 9 1010.4 1010.3 0.0
20/04:00am 12.3 10.2 8.4 77 1.9 N 9 15 5 8 1010.5 1010.4 0.0
20/03:30am 10.8 8.1 7.5 80 1.6 N 11 19 6 10 1010.9 1010.8 0.0
20/03:00am 11.2 8.4 7.1 76 2.0 N 11 13 6 7 1011.3 1011.2 0.0
20/02:30am 11.9 9.5 7.2 73 2.3 N 9 13 5 7 1011.5 1011.4 0.0
20/02:00am 12.2 9.8 6.9 70 2.6 N 9 13 5 7 1012.0 1011.9 0.0
20/01:30am 12.2 9.8 6.9 70 2.6 NNW 9 13 5 7 1012.4 1012.3 0.0
20/01:00am 12.0 9.2 7.1 72 2.4 N 11 17 6 9 1012.8 1012.7 0.0
20/12:30am 11.5 9.1 6.8 73 2.2 N 9 11 5 6 1013.1 1013.0 0.0
20/12:00am 11.5 9.4 6.8 73 2.2 NNW 7 13 4 7 1013.7 1013.6 0.0
 
Date/Time
EDT
Temp
°C
App
Temp
°C
Dew
Point
Rel
Hum
%
Delta-T
°C
Wind Press
QNH
hPa
Press
MSL
hPa
Rain
since 9 am
mm
Dir
 
Spd
km/h
Gust
km/h
Spd
kts
Gust
kts
19/11:30pm 11.7 9.5 6.2 69 2.6 NW 7 11 4 6 1014.1 1014.0 0.0
19/11:00pm 11.5 9.4 6.8 73 2.2 N 7 9 4 5 1014.3 1014.2 0.0
19/10:30pm 11.8 9.5 5.9 67 2.8 NNW 7 11 4 6 1014.7 1014.6 0.0
19/10:00pm 12.5 9.1 5.9 64 3.1 WNW 13 20 7 11 1014.9 1014.8 0.0
19/09:30pm 12.7 9.3 5.8 63 3.3 NW 13 20 7 11 1014.8 1014.7 0.0
19/09:00pm 13.2 9.7 5.4 59 3.7 WNW 13 20 7 11 1014.7 1014.6 0.0
19/08:30pm 13.4 9.8 5.1 57 3.9 WNW 13 19 7 10 1014.5 1014.4 0.0
19/08:00pm 14.0 9.6 4.9 54 4.3 WNW 17 24 9 13 1014.4 1014.3 0.0
19/07:30pm 15.2 10.8 4.9 50 4.9 WNW 17 26 9 14 1013.9 1013.8 0.0
19/07:00pm 16.5 11.7 4.5 45 5.7 WSW 19 26 10 14 1013.7 1013.6 0.0
19/06:30pm 15.0 10.1 4.1 48 5.0 WNW 19 30 10 16 1013.5 1013.4 0.0
19/06:00pm 15.8 11.2 3.9 45 5.5 W 17 24 9 13 1013.3 1013.2 0.0
19/05:30pm 16.3 11.7 3.7 43 5.8 W 17 30 9 16 1013.1 1013.0 0.0
19/05:00pm 16.3 12.8 3.7 43 5.8 WSW 11 22 6 12 1013.0 1012.9 0.0
19/04:30pm 16.1 10.9 2.5 40 6.1 W 19 28 10 15 1013.0 1012.9 0.0
19/04:00pm 16.4 11.5 2.1 38 6.4 W 17 26 9 14 1012.8 1012.7 0.0
19/03:30pm 16.2 10.1 2.6 40 6.2 WNW 24 37 13 20 1012.7 1012.6 0.0
19/03:00pm 17.3 12.0 3.2 39 6.5 WSW 20 33 11 18 1012.5 1012.4 0.0
19/02:30pm 19.3 14.4 4.3 37 7.2 WSW 19 26 10 14 1012.2 1012.1 0.0
19/02:00pm 17.0 11.9 3.3 40 6.3 WSW 19 35 10 19 1012.4 1012.3 0.0
19/01:30pm 16.8 11.6 3.8 42 6.1 WSW 20 35 11 19 1012.5 1012.4 0.0

Other Formats:

Comma delimited format used in spreadsheet applications
http://www.bom.gov.au/fwo/IDT60801/IDT60801.94957.axf

JavaScript Object Notation format (JSON) in row-major order
http://www.bom.gov.au/fwo/IDT60801/IDT60801.94957.json